sensor_id;sensor_type;location;lat;lon;timestamp;temperature;humidity
69715;HTU21D;56981;53.532;49.398;2023-05-14T00:02:23;14.27;64.65
69715;HTU21D;56981;53.532;49.398;2023-05-14T00:04:49;14.29;64.69
69715;HTU21D;56981;53.532;49.398;2023-05-14T00:07:15;14.30;66.30
69715;HTU21D;56981;53.532;49.398;2023-05-14T00:09:41;14.37;66.32
69715;HTU21D;56981;53.532;49.398;2023-05-14T00:12:07;14.44;64.21
69715;HTU21D;56981;53.532;49.398;2023-05-14T00:14:33;14.44;66.56
69715;HTU21D;56981;53.532;49.398;2023-05-14T00:17:00;14.48;63.12
69715;HTU21D;56981;53.532;49.398;2023-05-14T00:19:26;14.26;68.39
69715;HTU21D;56981;53.532;49.398;2023-05-14T00:21:52;14.17;67.90
69715;HTU21D;56981;53.532;49.398;2023-05-14T00:24:18;14.12;68.55
69715;HTU21D;56981;53.532;49.398;2023-05-14T00:26:44;14.14;64.97
69715;HTU21D;56981;53.532;49.398;2023-05-14T00:29:11;14.17;63.64
69715;HTU21D;56981;53.532;49.398;2023-05-14T00:31:37;14.22;64.04
69715;HTU21D;56981;53.532;49.398;2023-05-14T00:34:03;14.25;63.07
69715;HTU21D;56981;53.532;49.398;2023-05-14T00:36:29;14.30;62.16
69715;HTU21D;56981;53.532;49.398;2023-05-14T00:38:56;14.36;61.79
69715;HTU21D;56981;53.532;49.398;2023-05-14T00:41:22;14.36;61.83
69715;HTU21D;56981;53.532;49.398;2023-05-14T00:43:48;14.38;62.92
69715;HTU21D;56981;53.532;49.398;2023-05-14T00:46:15;14.39;61.63
69715;HTU21D;56981;53.532;49.398;2023-05-14T00:48:41;14.33;63.91
69715;HTU21D;56981;53.532;49.398;2023-05-14T00:51:07;14.30;65.54
69715;HTU21D;56981;53.532;49.398;2023-05-14T00:53:34;14.22;67.88
69715;HTU21D;56981;53.532;49.398;2023-05-14T00:56:01;14.11;70.00
69715;HTU21D;56981;53.532;49.398;2023-05-14T00:58:27;13.97;70.06
69715;HTU21D;56981;53.532;49.398;2023-05-14T01:00:54;13.81;71.60
69715;HTU21D;56981;53.532;49.398;2023-05-14T01:03:20;13.64;73.99
69715;HTU21D;56981;53.532;49.398;2023-05-14T01:11:32;13.27;76.34
69715;HTU21D;56981;53.532;49.398;2023-05-14T01:14:20;13.22;78.05
69715;HTU21D;56981;53.532;49.398;2023-05-14T01:16:49;13.15;77.12
69715;HTU21D;56981;53.532;49.398;2023-05-14T01:19:34;12.94;76.48
69715;HTU21D;56981;53.532;49.398;2023-05-14T01:22:02;13.24;76.60
69715;HTU21D;56981;53.532;49.398;2023-05-14T01:24:28;13.59;70.16
69715;HTU21D;56981;53.532;49.398;2023-05-14T01:27:00;14.01;73.11
69715;HTU21D;56981;53.532;49.398;2023-05-14T01:29:30;14.26;70.45
69715;HTU21D;56981;53.532;49.398;2023-05-14T01:31:58;14.23;69.56
69715;HTU21D;56981;53.532;49.398;2023-05-14T01:34:27;14.15;69.85
69715;HTU21D;56981;53.532;49.398;2023-05-14T01:36:56;14.08;70.48
69715;HTU21D;56981;53.532;49.398;2023-05-14T01:39:24;14.06;70.32
69715;HTU21D;56981;53.532;49.398;2023-05-14T01:41:51;14.28;69.45
69715;HTU21D;56981;53.532;49.398;2023-05-14T01:44:18;15.17;65.65
69715;HTU21D;56981;53.532;49.398;2023-05-14T01:46:45;16.30;61.67
69715;HTU21D;56981;53.532;49.398;2023-05-14T01:49:11;16.94;58.38
69715;HTU21D;56981;53.532;49.398;2023-05-14T01:51:37;17.87;55.57
69715;HTU21D;56981;53.532;49.398;2023-05-14T01:54:03;18.80;53.10
69715;HTU21D;56981;53.532;49.398;2023-05-14T01:56:29;19.60;51.14
69715;HTU21D;56981;53.532;49.398;2023-05-14T01:58:55;20.13;47.69
69715;HTU21D;56981;53.532;49.398;2023-05-14T02:01:22;20.66;46.08
69715;HTU21D;56981;53.532;49.398;2023-05-14T02:03:48;20.73;45.90
69715;HTU21D;56981;53.532;49.398;2023-05-14T02:06:14;20.84;45.60
69715;HTU21D;56981;53.532;49.398;2023-05-14T02:08:40;21.18;44.11
69715;HTU21D;56981;53.532;49.398;2023-05-14T02:11:06;20.03;46.96
69715;HTU21D;56981;53.532;49.398;2023-05-14T02:13:32;19.07;48.05
69715;HTU21D;56981;53.532;49.398;2023-05-14T02:15:58;18.06;50.24
69715;HTU21D;56981;53.532;49.398;2023-05-14T02:18:24;17.50;52.30
69715;HTU21D;56981;53.532;49.398;2023-05-14T02:20:50;17.01;54.04
69715;HTU21D;56981;53.532;49.398;2023-05-14T02:23:16;16.80;55.19
69715;HTU21D;56981;53.532;49.398;2023-05-14T02:25:43;16.61;55.81
69715;HTU21D;56981;53.532;49.398;2023-05-14T02:28:09;16.44;56.81
69715;HTU21D;56981;53.532;49.398;2023-05-14T02:30:35;16.37;57.06
69715;HTU21D;56981;53.532;49.398;2023-05-14T02:33:01;16.71;56.34
69715;HTU21D;56981;53.532;49.398;2023-05-14T02:35:28;16.43;56.82
69715;HTU21D;56981;53.532;49.398;2023-05-14T02:37:54;16.21;57.73
69715;HTU21D;56981;53.532;49.398;2023-05-14T02:40:20;16.07;58.64
69715;HTU21D;56981;53.532;49.398;2023-05-14T02:42:46;16.11;58.34
69715;HTU21D;56981;53.532;49.398;2023-05-14T02:45:13;16.31;58.23
69715;HTU21D;56981;53.532;49.398;2023-05-14T02:47:39;16.30;58.45
69715;HTU21D;56981;53.532;49.398;2023-05-14T02:50:05;16.22;58.86
69715;HTU21D;56981;53.532;49.398;2023-05-14T02:52:32;16.03;59.57
69715;HTU21D;56981;53.532;49.398;2023-05-14T02:54:58;15.92;60.39
69715;HTU21D;56981;53.532;49.398;2023-05-14T02:57:24;15.83;60.60
69715;HTU21D;56981;53.532;49.398;2023-05-14T02:59:50;15.69;61.82
69715;HTU21D;56981;53.532;49.398;2023-05-14T03:02:16;15.61;62.74
69715;HTU21D;56981;53.532;49.398;2023-05-14T03:04:42;15.57;62.68
69715;HTU21D;56981;53.532;49.398;2023-05-14T03:07:08;15.57;63.66
69715;HTU21D;56981;53.532;49.398;2023-05-14T03:09:34;15.48;65.21
69715;HTU21D;56981;53.532;49.398;2023-05-14T03:12:00;15.40;66.32
69715;HTU21D;56981;53.532;49.398;2023-05-14T03:14:26;15.36;66.15
69715;HTU21D;56981;53.532;49.398;2023-05-14T03:16:52;15.26;66.73
69715;HTU21D;56981;53.532;49.398;2023-05-14T03:19:18;15.29;66.96
69715;HTU21D;56981;53.532;49.398;2023-05-14T03:21:44;15.23;65.93
69715;HTU21D;56981;53.532;49.398;2023-05-14T03:24:10;15.21;66.55
69715;HTU21D;56981;53.532;49.398;2023-05-14T03:26:36;15.26;66.96
69715;HTU21D;56981;53.532;49.398;2023-05-14T03:29:03;15.30;66.31
69715;HTU21D;56981;53.532;49.398;2023-05-14T03:31:29;15.44;64.92
69715;HTU21D;56981;53.532;49.398;2023-05-14T03:33:55;15.76;64.58
69715;HTU21D;56981;53.532;49.398;2023-05-14T03:36:21;16.85;60.26
69715;HTU21D;56981;53.532;49.398;2023-05-14T03:38:47;17.99;55.45
69715;HTU21D;56981;53.532;49.398;2023-05-14T03:41:13;18.14;55.15
69715;HTU21D;56981;53.532;49.398;2023-05-14T03:43:39;18.30;53.70
69715;HTU21D;56981;53.532;49.398;2023-05-14T03:46:06;18.68;53.28
69715;HTU21D;56981;53.532;49.398;2023-05-14T03:48:32;18.95;52.13
69715;HTU21D;56981;53.532;49.398;2023-05-14T03:50:58;19.21;51.75
69715;HTU21D;56981;53.532;49.398;2023-05-14T03:53:24;20.55;47.53
69715;HTU21D;56981;53.532;49.398;2023-05-14T03:55:50;21.87;44.38
69715;HTU21D;56981;53.532;49.398;2023-05-14T03:58:16;22.86;42.28
69715;HTU21D;56981;53.532;49.398;2023-05-14T04:00:43;23.35;40.17
69715;HTU21D;56981;53.532;49.398;2023-05-14T04:03:09;23.99;39.44
69715;HTU21D;56981;53.532;49.398;2023-05-14T04:05:36;25.13;36.66
69715;HTU21D;56981;53.532;49.398;2023-05-14T04:08:02;25.90;34.37
69715;HTU21D;56981;53.532;49.398;2023-05-14T04:10:29;25.93;33.77
69715;HTU21D;56981;53.532;49.398;2023-05-14T04:12:56;26.73;31.98
69715;HTU21D;56981;53.532;49.398;2023-05-14T04:15:22;27.63;30.59
69715;HTU21D;56981;53.532;49.398;2023-05-14T04:17:49;27.32;30.37
69715;HTU21D;56981;53.532;49.398;2023-05-14T04:20:15;27.88;29.58
69715;HTU21D;56981;53.532;49.398;2023-05-14T04:22:41;27.80;30.04
69715;HTU21D;56981;53.532;49.398;2023-05-14T04:25:07;28.14;29.23
69715;HTU21D;56981;53.532;49.398;2023-05-14T04:27:33;28.39;28.60
69715;HTU21D;56981;53.532;49.398;2023-05-14T04:29:59;27.69;29.92
69715;HTU21D;56981;53.532;49.398;2023-05-14T04:32:25;27.66;29.52
69715;HTU21D;56981;53.532;49.398;2023-05-14T04:34:52;28.61;28.27
69715;HTU21D;56981;53.532;49.398;2023-05-14T04:37:18;28.61;28.58
69715;HTU21D;56981;53.532;49.398;2023-05-14T04:39:46;28.73;27.90
69715;HTU21D;56981;53.532;49.398;2023-05-14T04:42:13;29.16;26.34
69715;HTU21D;56981;53.532;49.398;2023-05-14T04:44:39;29.04;27.45
69715;HTU21D;56981;53.532;49.398;2023-05-14T04:47:05;28.88;27.33
69715;HTU21D;56981;53.532;49.398;2023-05-14T04:49:31;27.87;29.34
69715;HTU21D;56981;53.532;49.398;2023-05-14T04:51:58;28.71;27.73
69715;HTU21D;56981;53.532;49.398;2023-05-14T04:54:24;29.31;27.37
69715;HTU21D;56981;53.532;49.398;2023-05-14T04:56:50;29.02;28.09
69715;HTU21D;56981;53.532;49.398;2023-05-14T04:59:17;29.68;26.30
69715;HTU21D;56981;53.532;49.398;2023-05-14T05:01:43;29.36;26.71
69715;HTU21D;56981;53.532;49.398;2023-05-14T05:04:10;29.32;26.74
69715;HTU21D;56981;53.532;49.398;2023-05-14T05:06:36;28.41;27.78
69715;HTU21D;56981;53.532;49.398;2023-05-14T05:09:04;27.63;30.00
69715;HTU21D;56981;53.532;49.398;2023-05-14T05:11:30;26.63;31.25
69715;HTU21D;56981;53.532;49.398;2023-05-14T05:13:56;26.04;32.64
69715;HTU21D;56981;53.532;49.398;2023-05-14T05:16:23;25.35;34.27
69715;HTU21D;56981;53.532;49.398;2023-05-14T05:18:50;24.60;35.29
69715;HTU21D;56981;53.532;49.398;2023-05-14T05:21:16;23.89;37.58
69715;HTU21D;56981;53.532;49.398;2023-05-14T05:23:42;23.76;38.11
69715;HTU21D;56981;53.532;49.398;2023-05-14T05:26:08;23.21;39.81
69715;HTU21D;56981;53.532;49.398;2023-05-14T05:28:34;23.06;39.23
69715;HTU21D;56981;53.532;49.398;2023-05-14T05:31:00;22.46;40.73
69715;HTU21D;56981;53.532;49.398;2023-05-14T05:33:26;22.53;40.93
69715;HTU21D;56981;53.532;49.398;2023-05-14T05:35:53;22.73;40.76
69715;HTU21D;56981;53.532;49.398;2023-05-14T05:38:20;22.40;41.25
69715;HTU21D;56981;53.532;49.398;2023-05-14T05:40:46;22.42;41.78
69715;HTU21D;56981;53.532;49.398;2023-05-14T05:43:14;22.42;41.79
69715;HTU21D;56981;53.532;49.398;2023-05-14T05:45:40;21.97;42.45
69715;HTU21D;56981;53.532;49.398;2023-05-14T05:48:06;21.72;44.50
69715;HTU21D;56981;53.532;49.398;2023-05-14T05:50:32;21.38;44.06
69715;HTU21D;56981;53.532;49.398;2023-05-14T05:52:58;20.93;45.51
69715;HTU21D;56981;53.532;49.398;2023-05-14T05:55:25;20.91;45.52
69715;HTU21D;56981;53.532;49.398;2023-05-14T05:57:51;20.74;45.73
69715;HTU21D;56981;53.532;49.398;2023-05-14T06:00:17;20.40;45.62
69715;HTU21D;56981;53.532;49.398;2023-05-14T06:02:45;20.16;46.58
69715;HTU21D;56981;53.532;49.398;2023-05-14T06:05:11;20.01;48.15
69715;HTU21D;56981;53.532;49.398;2023-05-14T06:07:37;19.84;49.21
69715;HTU21D;56981;53.532;49.398;2023-05-14T06:10:04;19.66;50.46
69715;HTU21D;56981;53.532;49.398;2023-05-14T06:12:31;19.46;53.27
69715;HTU21D;56981;53.532;49.398;2023-05-14T06:14:57;19.33;55.85
69715;HTU21D;56981;53.532;49.398;2023-05-14T06:17:23;19.28;54.99
69715;HTU21D;56981;53.532;49.398;2023-05-14T06:19:53;19.14;57.68
69715;HTU21D;56981;53.532;49.398;2023-05-14T06:22:19;18.98;58.95
69715;HTU21D;56981;53.532;49.398;2023-05-14T06:24:46;18.79;60.78
69715;HTU21D;56981;53.532;49.398;2023-05-14T06:27:12;18.54;60.60
69715;HTU21D;56981;53.532;49.398;2023-05-14T06:29:38;18.51;62.03
69715;HTU21D;56981;53.532;49.398;2023-05-14T06:32:05;18.23;62.86
69715;HTU21D;56981;53.532;49.398;2023-05-14T06:34:31;17.89;63.76
69715;HTU21D;56981;53.532;49.398;2023-05-14T06:36:57;17.65;65.72
69715;HTU21D;56981;53.532;49.398;2023-05-14T06:39:23;17.63;67.38
69715;HTU21D;56981;53.532;49.398;2023-05-14T06:41:50;17.70;67.01
69715;HTU21D;56981;53.532;49.398;2023-05-14T06:44:18;17.75;67.55
69715;HTU21D;56981;53.532;49.398;2023-05-14T06:46:44;17.78;69.58
69715;HTU21D;56981;53.532;49.398;2023-05-14T06:49:10;17.70;66.72
69715;HTU21D;56981;53.532;49.398;2023-05-14T06:51:36;17.64;67.36
69715;HTU21D;56981;53.532;49.398;2023-05-14T06:54:03;17.47;65.93
69715;HTU21D;56981;53.532;49.398;2023-05-14T06:56:29;17.52;69.83
69715;HTU21D;56981;53.532;49.398;2023-05-14T06:58:55;17.54;71.84
69715;HTU21D;56981;53.532;49.398;2023-05-14T07:01:22;17.39;71.98
69715;HTU21D;56981;53.532;49.398;2023-05-14T07:03:48;17.46;72.02
69715;HTU21D;56981;53.532;49.398;2023-05-14T07:06:14;17.25;69.58
69715;HTU21D;56981;53.532;49.398;2023-05-14T07:08:42;17.04;72.16
69715;HTU21D;56981;53.532;49.398;2023-05-14T07:11:11;17.06;71.67
69715;HTU21D;56981;53.532;49.398;2023-05-14T07:13:38;17.09;72.19
69715;HTU21D;56981;53.532;49.398;2023-05-14T07:16:05;17.24;75.63
69715;HTU21D;56981;53.532;49.398;2023-05-14T07:18:31;17.37;72.86
69715;HTU21D;56981;53.532;49.398;2023-05-14T07:20:57;17.76;73.75
69715;HTU21D;56981;53.532;49.398;2023-05-14T07:23:23;17.99;69.75
69715;HTU21D;56981;53.532;49.398;2023-05-14T07:25:50;18.43;70.67
69715;HTU21D;56981;53.532;49.398;2023-05-14T07:28:16;18.83;67.28
69715;HTU21D;56981;53.532;49.398;2023-05-14T07:30:42;18.96;67.72
69715;HTU21D;56981;53.532;49.398;2023-05-14T07:33:08;19.43;68.58
69715;HTU21D;56981;53.532;49.398;2023-05-14T07:35:34;19.50;65.46
69715;HTU21D;56981;53.532;49.398;2023-05-14T07:38:00;19.79;65.65
69715;HTU21D;56981;53.532;49.398;2023-05-14T07:40:26;20.01;66.27
69715;HTU21D;56981;53.532;49.398;2023-05-14T07:42:52;19.99;65.48
69715;HTU21D;56981;53.532;49.398;2023-05-14T07:45:18;20.27;65.47
69715;HTU21D;56981;53.532;49.398;2023-05-14T07:47:45;20.70;63.61
69715;HTU21D;56981;53.532;49.398;2023-05-14T07:50:12;20.87;61.64
69715;HTU21D;56981;53.532;49.398;2023-05-14T07:52:38;21.04;61.90
69715;HTU21D;56981;53.532;49.398;2023-05-14T07:55:04;21.01;60.70
69715;HTU21D;56981;53.532;49.398;2023-05-14T07:57:30;21.22;59.11
69715;HTU21D;56981;53.532;49.398;2023-05-14T07:59:56;21.07;58.89
69715;HTU21D;56981;53.532;49.398;2023-05-14T08:02:23;21.09;62.28
69715;HTU21D;56981;53.532;49.398;2023-05-14T08:04:49;21.16;58.87
69715;HTU21D;56981;53.532;49.398;2023-05-14T08:07:15;20.93;60.04
69715;HTU21D;56981;53.532;49.398;2023-05-14T08:09:41;21.00;60.59
69715;HTU21D;56981;53.532;49.398;2023-05-14T08:12:07;21.58;57.84
69715;HTU21D;56981;53.532;49.398;2023-05-14T08:14:33;21.99;58.82
69715;HTU21D;56981;53.532;49.398;2023-05-14T08:16:59;21.98;57.09
69715;HTU21D;56981;53.532;49.398;2023-05-14T08:19:25;21.92;54.46
69715;HTU21D;56981;53.532;49.398;2023-05-14T08:21:52;21.93;57.58
69715;HTU21D;56981;53.532;49.398;2023-05-14T08:24:18;21.98;55.14
69715;HTU21D;56981;53.532;49.398;2023-05-14T08:26:44;22.51;53.59
69715;HTU21D;56981;53.532;49.398;2023-05-14T08:29:10;22.96;51.21
69715;HTU21D;56981;53.532;49.398;2023-05-14T08:31:36;23.28;51.17
69715;HTU21D;56981;53.532;49.398;2023-05-14T08:34:02;23.05;51.82
69715;HTU21D;56981;53.532;49.398;2023-05-14T08:36:28;23.53;50.94
69715;HTU21D;56981;53.532;49.398;2023-05-14T08:38:54;23.71;49.77
69715;HTU21D;56981;53.532;49.398;2023-05-14T08:41:20;23.75;46.16
69715;HTU21D;56981;53.532;49.398;2023-05-14T08:46:25;23.94;42.32
69715;HTU21D;56981;53.532;49.398;2023-05-14T08:48:56;24.21;45.73
69715;HTU21D;56981;53.532;49.398;2023-05-14T08:51:25;24.10;46.73
69715;HTU21D;56981;53.532;49.398;2023-05-14T08:53:52;24.39;42.12
69715;HTU21D;56981;53.532;49.398;2023-05-14T08:56:18;24.39;40.68
69715;HTU21D;56981;53.532;49.398;2023-05-14T08:58:44;24.50;42.68
69715;HTU21D;56981;53.532;49.398;2023-05-14T09:01:13;23.29;45.83
69715;HTU21D;56981;53.532;49.398;2023-05-14T09:03:39;23.24;47.72
69715;HTU21D;56981;53.532;49.398;2023-05-14T09:06:06;22.65;40.13
69715;HTU21D;56981;53.532;49.398;2023-05-14T09:08:33;22.17;41.85
69715;HTU21D;56981;53.532;49.398;2023-05-14T09:11:01;21.91;43.43
69715;HTU21D;56981;53.532;49.398;2023-05-14T09:13:27;21.40;44.34
69715;HTU21D;56981;53.532;49.398;2023-05-14T09:15:53;20.77;46.21
69715;HTU21D;56981;53.532;49.398;2023-05-14T09:18:20;20.44;47.68
69715;HTU21D;56981;53.532;49.398;2023-05-14T09:20:46;20.09;47.55
69715;HTU21D;56981;53.532;49.398;2023-05-14T09:23:12;19.82;49.35
69715;HTU21D;56981;53.532;49.398;2023-05-14T09:25:38;19.39;50.28
69715;HTU21D;56981;53.532;49.398;2023-05-14T09:28:07;18.84;53.58
69715;HTU21D;56981;53.532;49.398;2023-05-14T09:30:33;18.36;58.92
69715;HTU21D;56981;53.532;49.398;2023-05-14T09:33:01;17.33;60.89
69715;HTU21D;56981;53.532;49.398;2023-05-14T09:35:28;16.36;62.29
69715;HTU21D;56981;53.532;49.398;2023-05-14T09:37:54;15.60;65.91
69715;HTU21D;56981;53.532;49.398;2023-05-14T09:40:22;14.95;67.94
69715;HTU21D;56981;53.532;49.398;2023-05-14T09:42:48;14.19;70.14
69715;HTU21D;56981;53.532;49.398;2023-05-14T09:45:15;13.95;69.83
69715;HTU21D;56981;53.532;49.398;2023-05-14T09:47:42;13.50;73.53
69715;HTU21D;56981;53.532;49.398;2023-05-14T09:50:09;13.24;74.35
69715;HTU21D;56981;53.532;49.398;2023-05-14T09:52:36;12.82;77.50
69715;HTU21D;56981;53.532;49.398;2023-05-14T09:55:03;12.47;77.80
69715;HTU21D;56981;53.532;49.398;2023-05-14T09:57:29;12.37;79.85
69715;HTU21D;56981;53.532;49.398;2023-05-14T09:59:55;11.96;83.16
69715;HTU21D;56981;53.532;49.398;2023-05-14T10:02:23;11.86;81.73
69715;HTU21D;56981;53.532;49.398;2023-05-14T10:04:52;11.46;83.97
69715;HTU21D;56981;53.532;49.398;2023-05-14T10:07:24;11.37;84.99
69715;HTU21D;56981;53.532;49.398;2023-05-14T10:09:57;11.33;85.49
69715;HTU21D;56981;53.532;49.398;2023-05-14T10:12:27;11.34;81.79
69715;HTU21D;56981;53.532;49.398;2023-05-14T10:14:56;11.58;78.41
69715;HTU21D;56981;53.532;49.398;2023-05-14T10:17:27;11.77;82.46
69715;HTU21D;56981;53.532;49.398;2023-05-14T10:19:56;11.98;82.74
69715;HTU21D;56981;53.532;49.398;2023-05-14T10:22:26;12.23;79.47
69715;HTU21D;56981;53.532;49.398;2023-05-14T10:24:54;12.37;83.32
69715;HTU21D;56981;53.532;49.398;2023-05-14T10:27:21;12.47;83.10
69715;HTU21D;56981;53.532;49.398;2023-05-14T10:29:54;12.52;84.21
69715;HTU21D;56981;53.532;49.398;2023-05-14T10:32:22;12.76;80.28
69715;HTU21D;56981;53.532;49.398;2023-05-14T10:34:52;12.85;82.95
69715;HTU21D;56981;53.532;49.398;2023-05-14T10:37:26;12.55;82.55
69715;HTU21D;56981;53.532;49.398;2023-05-14T10:39:56;12.50;82.41
69715;HTU21D;56981;53.532;49.398;2023-05-14T10:42:25;12.69;83.68
69715;HTU21D;56981;53.532;49.398;2023-05-14T10:45:03;13.10;84.35
69715;HTU21D;56981;53.532;49.398;2023-05-14T10:47:32;13.35;84.03
69715;HTU21D;56981;53.532;49.398;2023-05-14T10:50:02;13.77;84.87
69715;HTU21D;56981;53.532;49.398;2023-05-14T10:52:29;14.19;83.74
69715;HTU21D;56981;53.532;49.398;2023-05-14T10:54:57;14.63;80.72
69715;HTU21D;56981;53.532;49.398;2023-05-14T10:57:25;14.98;80.32
69715;HTU21D;56981;53.532;49.398;2023-05-14T10:59:54;15.36;78.39
69715;HTU21D;56981;53.532;49.398;2023-05-14T11:02:26;15.81;75.86
69715;HTU21D;56981;53.532;49.398;2023-05-14T11:12:42;16.98;64.85
69715;HTU21D;56981;53.532;49.398;2023-05-14T11:15:08;17.14;62.06
69715;HTU21D;56981;53.532;49.398;2023-05-14T11:17:36;17.38;62.20
69715;HTU21D;56981;53.532;49.398;2023-05-14T11:20:03;17.53;61.03
69715;HTU21D;56981;53.532;49.398;2023-05-14T11:22:34;17.67;54.71
69715;HTU21D;56981;53.532;49.398;2023-05-14T11:25:00;17.70;63.98
69715;HTU21D;56981;53.532;49.398;2023-05-14T11:27:26;17.67;65.96
69715;HTU21D;56981;53.532;49.398;2023-05-14T11:29:52;17.75;65.25
69715;HTU21D;56981;53.532;49.398;2023-05-14T11:32:20;17.74;64.88
69715;HTU21D;56981;53.532;49.398;2023-05-14T11:34:46;17.85;64.27
69715;HTU21D;56981;53.532;49.398;2023-05-14T11:37:14;17.90;64.71
69715;HTU21D;56981;53.532;49.398;2023-05-14T11:42:13;18.18;62.38
69715;HTU21D;56981;53.532;49.398;2023-05-14T11:44:42;18.26;60.07
69715;HTU21D;56981;53.532;49.398;2023-05-14T11:47:11;18.23;58.15
69715;HTU21D;56981;53.532;49.398;2023-05-14T11:49:37;18.15;57.48
69715;HTU21D;56981;53.532;49.398;2023-05-14T11:52:05;18.12;58.09
69715;HTU21D;56981;53.532;49.398;2023-05-14T11:54:32;18.10;56.46
69715;HTU21D;56981;53.532;49.398;2023-05-14T11:57:10;18.10;58.68
69715;HTU21D;56981;53.532;49.398;2023-05-14T11:59:36;18.21;58.00
69715;HTU21D;56981;53.532;49.398;2023-05-14T12:02:03;18.29;56.23
69715;HTU21D;56981;53.532;49.398;2023-05-14T12:04:32;18.30;57.19
69715;HTU21D;56981;53.532;49.398;2023-05-14T12:06:59;18.41;58.00
69715;HTU21D;56981;53.532;49.398;2023-05-14T12:09:25;18.39;55.95
69715;HTU21D;56981;53.532;49.398;2023-05-14T12:11:52;18.37;56.89
69715;HTU21D;56981;53.532;49.398;2023-05-14T12:14:22;18.40;58.73
69715;HTU21D;56981;53.532;49.398;2023-05-14T12:16:49;18.44;57.69
69715;HTU21D;56981;53.532;49.398;2023-05-14T12:19:18;18.30;57.87
69715;HTU21D;56981;53.532;49.398;2023-05-14T12:21:46;18.24;56.45
69715;HTU21D;56981;53.532;49.398;2023-05-14T12:24:16;18.34;56.71
69715;HTU21D;56981;53.532;49.398;2023-05-14T12:26:44;18.42;56.39
69715;HTU21D;56981;53.532;49.398;2023-05-14T12:29:12;18.50;54.94
69715;HTU21D;56981;53.532;49.398;2023-05-14T12:31:47;18.43;54.52
69715;HTU21D;56981;53.532;49.398;2023-05-14T12:34:14;18.38;53.24
69715;HTU21D;56981;53.532;49.398;2023-05-14T12:36:41;18.27;53.85
69715;HTU21D;56981;53.532;49.398;2023-05-14T12:39:08;18.10;55.00
69715;HTU21D;56981;53.532;49.398;2023-05-14T12:41:35;18.12;53.84
69715;HTU21D;56981;53.532;49.398;2023-05-14T12:44:04;18.20;54.97
69715;HTU21D;56981;53.532;49.398;2023-05-14T12:46:31;18.22;53.17
69715;HTU21D;56981;53.532;49.398;2023-05-14T12:48:57;18.18;53.90
69715;HTU21D;56981;53.532;49.398;2023-05-14T12:51:24;18.23;52.98
69715;HTU21D;56981;53.532;49.398;2023-05-14T12:53:50;18.34;52.18
69715;HTU21D;56981;53.532;49.398;2023-05-14T12:56:17;18.39;52.43
69715;HTU21D;56981;53.532;49.398;2023-05-14T12:59:08;18.51;51.98
69715;HTU21D;56981;53.532;49.398;2023-05-14T13:01:35;18.62;52.89
69715;HTU21D;56981;53.532;49.398;2023-05-14T13:04:04;18.64;51.75
69715;HTU21D;56981;53.532;49.398;2023-05-14T13:06:30;18.67;51.96
69715;HTU21D;56981;53.532;49.398;2023-05-14T13:08:56;18.74;51.89
69715;HTU21D;56981;53.532;49.398;2023-05-14T13:11:24;18.78;51.85
69715;HTU21D;56981;53.532;49.398;2023-05-14T13:13:51;18.80;51.69
69715;HTU21D;56981;53.532;49.398;2023-05-14T13:16:18;18.68;52.11
69715;HTU21D;56981;53.532;49.398;2023-05-14T13:18:44;18.69;51.81
69715;HTU21D;56981;53.532;49.398;2023-05-14T13:21:10;18.61;51.17
69715;HTU21D;56981;53.532;49.398;2023-05-14T13:23:37;18.51;54.68
69715;HTU21D;56981;53.532;49.398;2023-05-14T13:26:03;18.48;54.01
69715;HTU21D;56981;53.532;49.398;2023-05-14T13:28:29;18.47;54.46
69715;HTU21D;56981;53.532;49.398;2023-05-14T13:33:33;18.30;55.90
69715;HTU21D;56981;53.532;49.398;2023-05-14T13:35:59;18.22;56.19
69715;HTU21D;56981;53.532;49.398;2023-05-14T13:38:26;18.14;55.43
69715;HTU21D;56981;53.532;49.398;2023-05-14T13:40:52;18.02;56.10
69715;HTU21D;56981;53.532;49.398;2023-05-14T13:43:19;18.00;57.88
69715;HTU21D;56981;53.532;49.398;2023-05-14T13:45:45;18.02;60.15
69715;HTU21D;56981;53.532;49.398;2023-05-14T13:48:11;17.92;58.45
69715;HTU21D;56981;53.532;49.398;2023-05-14T13:50:37;17.78;57.35
69715;HTU21D;56981;53.532;49.398;2023-05-14T13:53:03;17.74;58.58
69715;HTU21D;56981;53.532;49.398;2023-05-14T13:55:29;17.66;59.07
69715;HTU21D;56981;53.532;49.398;2023-05-14T13:57:55;17.60;57.48
69715;HTU21D;56981;53.532;49.398;2023-05-14T14:00:21;17.64;58.08
69715;HTU21D;56981;53.532;49.398;2023-05-14T14:02:47;17.66;56.98
69715;HTU21D;56981;53.532;49.398;2023-05-14T14:05:13;17.61;59.64
69715;HTU21D;56981;53.532;49.398;2023-05-14T14:07:39;17.56;59.72
69715;HTU21D;56981;53.532;49.398;2023-05-14T14:10:06;17.51;60.31
69715;HTU21D;56981;53.532;49.398;2023-05-14T14:12:33;17.53;60.47
69715;HTU21D;56981;53.532;49.398;2023-05-14T14:14:58;17.56;59.23
69715;HTU21D;56981;53.532;49.398;2023-05-14T14:17:25;17.56;59.43
69715;HTU21D;56981;53.532;49.398;2023-05-14T14:19:51;17.69;60.18
69715;HTU21D;56981;53.532;49.398;2023-05-14T14:22:17;17.84;59.90
69715;HTU21D;56981;53.532;49.398;2023-05-14T14:24:44;17.90;59.53
69715;HTU21D;56981;53.532;49.398;2023-05-14T14:27:10;18.02;59.75
69715;HTU21D;56981;53.532;49.398;2023-05-14T14:29:36;18.02;57.58
69715;HTU21D;56981;53.532;49.398;2023-05-14T14:32:02;17.98;60.44
69715;HTU21D;56981;53.532;49.398;2023-05-14T14:34:28;17.93;59.25
69715;HTU21D;56981;53.532;49.398;2023-05-14T14:36:54;17.92;58.80
69715;HTU21D;56981;53.532;49.398;2023-05-14T14:39:20;17.89;60.64
69715;HTU21D;56981;53.532;49.398;2023-05-14T14:41:49;17.85;58.91
69715;HTU21D;56981;53.532;49.398;2023-05-14T14:44:15;17.83;60.89
69715;HTU21D;56981;53.532;49.398;2023-05-14T14:46:41;17.69;59.88
69715;HTU21D;56981;53.532;49.398;2023-05-14T14:49:07;17.67;60.97
69715;HTU21D;56981;53.532;49.398;2023-05-14T14:51:34;17.53;59.25
69715;HTU21D;56981;53.532;49.398;2023-05-14T14:54:00;17.47;59.60
69715;HTU21D;56981;53.532;49.398;2023-05-14T14:56:26;17.34;59.03
69715;HTU21D;56981;53.532;49.398;2023-05-14T14:58:55;17.28;60.51
69715;HTU21D;56981;53.532;49.398;2023-05-14T15:01:21;17.16;59.65
69715;HTU21D;56981;53.532;49.398;2023-05-14T15:03:49;17.10;60.53
69715;HTU21D;56981;53.532;49.398;2023-05-14T15:06:15;17.03;58.13
69715;HTU21D;56981;53.532;49.398;2023-05-14T15:08:41;16.98;57.85
69715;HTU21D;56981;53.532;49.398;2023-05-14T15:11:07;16.95;59.61
69715;HTU21D;56981;53.532;49.398;2023-05-14T15:13:36;16.77;62.18
69715;HTU21D;56981;53.532;49.398;2023-05-14T15:16:02;16.62;62.22
69715;HTU21D;56981;53.532;49.398;2023-05-14T15:18:28;16.39;63.36
69715;HTU21D;56981;53.532;49.398;2023-05-14T15:20:54;16.19;64.49
69715;HTU21D;56981;53.532;49.398;2023-05-14T15:23:21;16.02;65.78